Monday, February 19, 2018, 9:59 AM GMT
Back to Local

CWJB, Ste Foy CS , Que.

Location: , , Canada Lat: 47.3
Local Time: 9:59 AM GMT ( 9:59 GMT) Lon: -71.267
Time Zone: GMT Elev: 298 ft

Show me the last for .
Show Decoded

2018-02-19 09:00 METAR CWJB 190900Z AUTO 32002KT M08/ RMK AO1 SOG 49 T1078 =
2018-02-19 08:00 METAR CWJB 190800Z AUTO 00000KT M08/ RMK AO1 SOG 49 T1078 =
2018-02-19 07:00 METAR CWJB 190700Z AUTO 22001KT M08/ RMK AO1 SOG 49 T1082 =
2018-02-19 06:00 METAR CWJB 190600Z AUTO 00000KT M08/ RMK AO1 SOG 49 T1084 =
2018-02-19 05:00 METAR CWJB 190500Z AUTO 21002KT M06/ RMK AO1 SOG 48 T1060 =
2018-02-19 04:00 METAR CWJB 190400Z AUTO 22003KT M04/ RMK AO1 SOG 49 T1035 =
2018-02-19 03:00 METAR CWJB 190300Z AUTO 22004KT M04/ RMK AO1 SOG 49 T1036 =
2018-02-19 02:00 METAR CWJB 190200Z AUTO 22004KT M03/ RMK AO1 SOG 49 T1032 =
2018-02-19 01:00 METAR CWJB 190100Z AUTO 22004KT M03/ RMK AO1 SOG 49 T1027 =
2018-02-19 00:00 METAR CWJB 190000Z AUTO 21004KT M02/ RMK AO1 SOG 49 T1021 =
2018-02-18 23:00 METAR CWJB 182300Z AUTO 22008KT M00/ RMK AO1 SOG 49 T1004 =
2018-02-18 22:00 METAR CWJB 182200Z AUTO 21004KT 00/ RMK AO1 SOG 49 T0000 =
2018-02-18 21:00 METAR CWJB 182100Z AUTO 34003KT 01/ RMK AO1 SOG 49 T0010 =
2018-02-18 20:00 METAR CWJB 182000Z AUTO 21006KT M00/ RMK AO1 SOG 49 PK WND 22017/1901 T1003 =
2018-02-18 19:00 METAR CWJB 181900Z AUTO 21008KT M01/ RMK AO1 SOG 49 T1010 =
2018-02-18 18:00 METAR CWJB 181800Z AUTO 22010G16KT M02/ RMK AO1 SOG 49 PK WND 20017/1713 T1016
                 50012 =
2018-02-18 17:00 METAR CWJB 181700Z AUTO 22009G16KT M02/ RMK AO1 SOG 49 T1024 50012 =
2018-02-18 16:00 METAR CWJB 181600Z AUTO 22007KT M03/ RMK AO1 SOG 49 T1032 50012 =
2018-02-18 15:00 METAR CWJB 181500Z AUTO 22008KT M04/ RMK AO1 2PAST HR SOG 49 M P0005 T1038 50012
                 =
2018-02-18 14:00 METAR CWJB 181400Z AUTO 22007KT M04/ RMK AO1 SOG 50 T1043 =
2018-02-18 13:00 METAR CWJB 181300Z AUTO 22004KT M05/ RMK AO1 SOG 49 T1051 =
2018-02-18 12:00 METAR CWJB 181200Z AUTO 27001KT M06/ RMK AO1 SOG 49 T1059 =
2018-02-18 11:00 METAR CWJB 181100Z AUTO 33001KT M06/ RMK AO1 SOG 49 T1060 =
2018-02-18 10:00 METAR CWJB 181000Z AUTO 00000KT M06/ RMK AO1 SOG 49 T1059 =

Support USWX by starting your Amazon purchase here.